Terminal Aerodrome Forecast
Issued by NWS Memphis, TN

Current Version | Previous Version | Text Only | Print | Product List | Glossary On
Versions: 1 2 3 4 5 6 7 8 9 10 11 12 13 14 15 16 17 18
000
FTUS44 KMEG 291740
TAFMKL
TAF
KMKL 291740Z 2918/3018 19006KT P6SM BKN015 OVC025
     FM292000 19007KT P6SM VCTS SCT025 BKN035CB
     FM300100 16007KT P6SM BKN050 BKN250
     FM300900 17006KT P6SM SCT006 OVC015
      TEMPO 3010/3014 OVC006
     FM301400 19010KT P6SM VCTS SCT008 OVC015CB=

USA.gov is the U.S. government's official web portal to all federal, state and local government web resources and services.